Time;durP1;ratioP1;P1;durP2;ratioP2;P2;SDS_P1;SDS_P2;PMS_P1;PMS_P2;Temp;Humidity;BMP_temperature;BMP_pressure;BME280_temperature;BME280_humidity;BME280_pressure;Samples;Min_cycle;Max_cycle;Signal;HPM_P1;HPM_P2
2022/07/22 00:01:55;;;;;;;9.43;5.60;;;19.70;99.90;;;16.92;100.00;101016.53;5012419;28;20069;-76
2022/07/22 00:04:22;;;;;;;10.25;4.80;;;19.70;99.90;;;16.83;100.00;101021.44;5012381;28;20065;-76
2022/07/22 00:06:50;;;;;;;12.60;5.15;;;19.70;99.90;;;16.82;100.00;101016.97;5012095;28;20069;-76
2022/07/22 00:09:17;;;;;;;12.45;4.53;;;19.70;99.90;;;16.85;100.00;101016.56;5011377;28;20051;-76
2022/07/22 00:11:44;;;;;;;8.25;4.05;;;19.70;99.90;;;16.87;100.00;101030.06;5004443;28;20049;-76
2022/07/22 00:14:12;;;;;;;11.00;4.35;;;19.60;99.90;;;16.88;100.00;101020.78;4992437;28;20050;-76
2022/07/22 00:16:40;;;;;;;6.15;3.20;;;19.60;99.90;;;16.81;100.00;101015.22;4991627;28;20438;-77
2022/07/22 00:19:09;;;;;;;9.55;4.00;;;19.60;99.90;;;16.78;100.00;101010.19;4991542;28;20069;-76
2022/07/22 00:21:36;;;;;;;5.95;3.22;;;19.60;99.90;;;16.74;100.00;101020.75;4992127;28;20046;-77
2022/07/22 00:24:04;;;;;;;7.72;3.65;;;19.60;99.90;;;16.75;100.00;101022.47;4992294;28;20042;-76
2022/07/22 00:26:32;;;;;;;6.18;3.22;;;19.60;99.90;;;16.70;100.00;101019.50;4992193;28;20052;-77
2022/07/22 00:28:59;;;;;;;5.78;2.90;;;19.50;99.90;;;16.72;100.00;101017.38;4991598;28;20034;-77
2022/07/22 00:31:30;;;;;;;9.35;3.33;;;19.60;99.90;;;16.76;100.00;101021.38;4990778;28;20544;-77
2022/07/22 00:33:59;;;;;;;9.35;3.85;;;19.50;99.90;;;16.75;100.00;101022.47;4992175;28;20503;-77
2022/07/22 00:36:27;;;;;;;6.15;3.08;;;19.60;99.90;;;16.76;100.00;101024.13;4992067;28;20058;-77
2022/07/22 00:38:54;;;;;;;7.72;4.05;;;19.50;99.90;;;16.75;100.00;101016.97;4991268;28;20134;-76
2022/07/22 00:41:22;;;;;;;6.55;3.55;;;19.50;99.90;;;16.73;100.00;101019.06;4990357;28;20054;-76
2022/07/22 00:43:54;;;;;;;8.50;3.40;;;19.50;99.90;;;16.80;100.00;101011.66;4991961;28;20495;-76
2022/07/22 00:46:21;;;;;;;9.88;4.15;;;19.60;99.90;;;16.79;100.00;101011.84;4990506;28;20128;-76
2022/07/22 00:48:49;;;;;;;10.68;4.93;;;19.60;99.90;;;16.76;100.00;101013.13;4989581;28;20046;-76
2022/07/22 00:51:17;;;;;;;9.80;4.55;;;19.50;99.90;;;16.81;100.00;101021.59;4990319;28;20058;-77
2022/07/22 00:53:47;;;;;;;9.38;4.70;;;19.50;99.90;;;16.79;100.00;101012.72;4991756;28;20053;-76
2022/07/22 00:56:14;;;;;;;8.88;4.60;;;19.50;99.90;;;16.79;100.00;101014.59;4991571;28;20181;-77
2022/07/22 00:58:42;;;;;;;9.25;5.22;;;19.60;99.90;;;16.76;100.00;101012.31;4989409;28;20046;-76
2022/07/22 01:01:10;;;;;;;7.70;4.55;;;19.50;99.90;;;16.73;100.00;101012.72;4991520;28;20046;-77
2022/07/22 01:03:37;;;;;;;9.15;4.82;;;19.50;99.90;;;16.75;100.00;101008.72;4991612;28;20055;-76
2022/07/22 01:06:06;;;;;;;10.07;4.97;;;19.50;99.90;;;16.75;100.00;101008.72;4990125;28;20045;-77
2022/07/22 01:08:34;;;;;;;7.55;4.53;;;19.50;99.90;;;16.75;100.00;101016.09;4990794;28;20062;-76
2022/07/22 01:11:10;;;;;;;8.10;4.60;;;19.50;99.90;;;16.77;100.00;101012.09;4991393;28;20046;-76
2022/07/22 01:13:38;;;;;;;10.43;5.60;;;19.50;99.90;;;16.75;100.00;101008.72;4991455;28;20499;-77
2022/07/22 01:16:07;;;;;;;12.38;6.18;;;19.50;99.90;;;16.74;100.00;101015.25;4989988;28;20046;-76
2022/07/22 01:18:36;;;;;;;11.55;6.53;;;19.50;99.90;;;16.74;100.00;101014.41;4989133;28;20141;-77
2022/07/22 01:21:06;;;;;;;9.23;6.40;;;19.50;99.90;;;16.71;100.00;101004.69;4989818;28;20466;-77
2022/07/22 01:23:33;;;;;;;10.45;6.57;;;19.50;99.90;;;16.76;100.00;101009.56;4991195;28;20426;-76
2022/07/22 01:26:02;;;;;;;11.70;6.60;;;19.50;99.90;;;16.81;100.00;101010.59;4989610;28;20109;-76
2022/07/22 01:28:29;;;;;;;7.97;5.40;;;19.50;99.90;;;16.86;100.00;101014.66;4988913;28;20587;-77
2022/07/22 01:30:56;;;;;;;8.00;5.80;;;19.50;99.90;;;16.84;100.00;101008.50;4989700;28;20062;-76
2022/07/22 01:33:24;;;;;;;8.38;5.82;;;19.50;99.90;;;16.77;100.00;101003.84;4989708;28;20084;-77
2022/07/22 01:35:52;;;;;;;8.82;5.93;;;19.50;99.90;;;16.79;100.00;101018.22;4989754;28;20341;-77
2022/07/22 01:38:21;;;;;;;9.02;5.65;;;19.50;99.90;;;16.75;100.00;101013.34;4990575;28;20049;-76
2022/07/22 01:40:49;;;;;;;8.27;3.60;;;19.40;99.90;;;16.72;100.00;101011.88;4989494;28;20046;-76
2022/07/22 01:43:20;;;;;;;8.48;3.40;;;19.50;99.90;;;16.67;100.00;101014.41;4989698;28;20511;-77
2022/07/22 01:45:51;;;;;;;5.90;2.53;;;19.40;99.90;;;16.66;100.00;101011.88;4989660;28;20049;-76
2022/07/22 01:48:21;;;;;;;7.93;3.10;;;19.40;99.90;;;16.63;100.00;101007.66;4989186;28;20529;-76
2022/07/22 01:50:48;;;;;;;5.88;2.50;;;19.30;99.90;;;16.63;100.00;101013.16;4989485;28;20053;-76
2022/07/22 01:53:17;;;;;;;6.03;2.15;;;19.40;99.90;;;16.61;100.00;101013.34;4989226;28;20522;-76
2022/07/22 01:55:48;;;;;;;4.90;1.98;;;19.40;99.90;;;16.56;100.00;101010.41;4992586;28;20059;-77
2022/07/22 01:58:17;;;;;;;5.15;2.42;;;19.40;99.90;;;16.54;100.00;101008.94;5008458;28;20141;-76
2022/07/22 02:00:44;;;;;;;5.68;2.30;;;19.40;99.90;;;16.49;100.00;101011.47;5008445;28;20073;-76
2022/07/22 02:03:12;;;;;;;10.40;2.58;;;19.30;99.90;;;16.48;100.00;101009.78;5010239;28;20037;-77
2022/07/22 02:05:39;;;;;;;7.20;2.50;;;19.30;99.90;;;16.46;100.00;101007.25;5010157;28;20069;-76
2022/07/22 02:08:18;;;;;;;5.88;2.30;;;19.30;99.90;;;16.48;100.00;101016.13;5008399;28;20054;-77
2022/07/22 02:11:09;;;;;;;6.75;2.40;;;19.30;99.90;;;16.49;100.00;101000.50;5010057;28;20058;-76
2022/07/22 02:13:45;;;;;;;7.70;2.65;;;19.30;99.90;;;16.49;100.00;101003.25;5008928;28;20518;-77
2022/07/22 02:16:13;;;;;;;5.93;2.10;;;19.30;99.90;;;16.50;100.00;101007.66;5008683;28;20046;-77
2022/07/22 02:18:40;;;;;;;6.03;2.25;;;19.30;99.90;;;16.48;100.00;100998.78;5007952;28;20426;-76
2022/07/22 02:21:09;;;;;;;6.35;2.05;;;19.30;99.90;;;16.48;100.00;101009.78;5003614;28;20061;-77
2022/07/22 02:23:36;;;;;;;6.00;2.42;;;19.30;99.90;;;16.48;100.00;101001.53;4989136;28;20043;-76
2022/07/22 02:26:05;;;;;;;7.00;2.70;;;19.30;99.90;;;16.51;100.00;101001.13;4988978;28;20057;-76
2022/07/22 02:28:33;;;;;;;5.07;2.80;;;19.30;99.90;;;16.51;100.00;101001.13;4989524;28;20042;-76
2022/07/22 02:31:01;;;;;;;7.85;3.53;;;19.30;99.90;;;16.52;100.00;101006.38;4988920;28;20112;-76
2022/07/22 02:33:29;;;;;;;6.32;3.25;;;19.30;99.90;;;16.55;100.00;101005.13;4988984;28;20507;-76
2022/07/22 02:35:57;;;;;;;8.18;4.50;;;19.30;99.90;;;16.59;100.00;101000.91;4988857;28;20052;-76
2022/07/22 02:38:24;;;;;;;12.50;5.28;;;19.30;99.90;;;16.58;100.00;100989.06;4988908;28;20049;-76
2022/07/22 02:40:52;;;;;;;10.90;5.15;;;19.30;99.90;;;16.55;100.00;100994.97;4994194;28;20039;-76
2022/07/22 02:43:19;;;;;;;11.93;5.57;;;19.30;99.90;;;16.56;100.00;100995.81;4992796;28;20137;-77
2022/07/22 02:45:48;;;;;;;10.90;5.95;;;19.30;99.90;;;16.50;100.00;100996.66;4992939;28;20074;-76
2022/07/22 02:48:15;;;;;;;7.40;4.90;;;19.30;99.90;;;16.53;100.00;100990.75;4992369;28;20047;-76
2022/07/22 02:50:46;;;;;;;14.73;6.70;;;19.30;99.90;;;16.51;100.00;100990.97;4992362;28;20058;-77
2022/07/22 02:53:17;;;;;;;11.15;6.22;;;19.30;99.90;;;16.51;100.00;100999.22;4992783;28;20051;-77
2022/07/22 02:55:45;;;;;;;11.38;6.30;;;19.30;99.90;;;16.55;100.00;101000.47;4992651;28;20096;-77
2022/07/22 02:58:12;;;;;;;10.38;6.57;;;19.30;99.90;;;16.55;100.00;101000.47;4993670;28;20436;-77
2022/07/22 03:00:42;;;;;;;17.60;7.30;;;19.30;99.90;;;16.49;100.00;101000.50;4992237;28;20530;-76
2022/07/22 03:03:11;;;;;;;14.80;7.55;;;19.20;99.90;;;16.50;100.00;100994.75;4993796;28;20089;-76
2022/07/22 03:05:38;;;;;;;14.07;6.28;;;19.20;99.90;;;16.54;100.00;100998.78;4992373;28;20058;-76
2022/07/22 03:08:28;;;;;;;13.70;7.03;;;19.20;99.90;;;16.49;100.00;101006.00;4989734;28;20054;-76
2022/07/22 03:10:55;;;;;;;12.65;6.43;;;19.20;99.90;;;16.51;100.00;101010.22;4992225;28;20050;-77
2022/07/22 03:13:23;;;;;;;10.60;6.18;;;19.20;99.90;;;16.51;100.00;101003.88;4992333;28;20081;-76
2022/07/22 03:15:50;;;;;;;16.15;5.82;;;19.20;99.90;;;16.53;100.00;101001.75;4992404;28;20495;-76
2022/07/22 03:18:19;;;;;;;10.75;5.97;;;19.20;99.90;;;16.48;100.00;101009.78;4991685;28;20136;-77
2022/07/22 03:20:47;;;;;;;12.30;5.60;;;19.20;99.90;;;16.44;100.00;101014.00;4992135;28;20130;-76
2022/07/22 03:23:15;;;;;;;9.73;4.65;;;19.20;99.90;;;16.41;100.00;101016.13;4993569;28;20125;-76
2022/07/22 03:25:42;;;;;;;11.75;4.70;;;19.20;99.90;;;16.41;100.00;101018.00;4992180;28;20570;-77
2022/07/22 03:28:09;;;;;;;8.88;4.03;;;19.20;99.90;;;16.36;100.00;101018.66;4991835;28;20039;-76
2022/07/22 03:30:37;;;;;;;11.85;4.38;;;19.10;99.90;;;16.34;100.00;101015.28;4991533;28;20049;-76
2022/07/22 03:33:04;;;;;;;12.30;4.00;;;19.10;99.90;;;16.33;100.00;101008.06;4993247;28;20052;-76
2022/07/22 03:35:37;;;;;;;11.20;4.28;;;19.10;99.90;;;16.31;100.00;101010.19;4991915;28;20107;-76
2022/07/22 03:38:05;;;;;;;10.15;3.90;;;19.10;99.90;;;16.32;100.00;101017.38;4991592;28;20050;-76
2022/07/22 03:40:32;;;;;;;10.00;4.18;;;19.10;99.90;;;16.31;100.00;101009.34;4990960;28;20044;-77
2022/07/22 03:43:00;;;;;;;7.30;3.45;;;19.10;99.90;;;16.31;100.00;101015.69;4991708;28;20042;-76
2022/07/22 03:45:27;;;;;;;10.98;4.07;;;19.10;99.90;;;16.33;100.00;101010.81;4991699;28;20137;-76
2022/07/22 03:47:57;;;;;;;9.65;3.53;;;19.10;99.90;;;16.31;100.00;101010.19;4991554;28;20054;-76
2022/07/22 03:50:25;;;;;;;9.88;3.60;;;19.00;99.90;;;16.31;100.00;101014.84;4989730;28;20137;-76
2022/07/22 03:52:54;;;;;;;11.25;4.00;;;19.10;99.90;;;16.32;100.00;101022.03;4991603;28;20538;-76
2022/07/22 03:55:22;;;;;;;9.68;4.00;;;19.10;99.90;;;16.26;100.00;101023.72;4991642;28;20558;-76
2022/07/22 03:57:53;;;;;;;;;;;19.00;99.90;;;16.27;100.00;101011.66;4994403;28;20046;-76
2022/07/22 04:00:25;;;;;;;13.55;4.45;;;19.00;99.90;;;16.29;100.00;101020.53;5007037;28;19932;-76
2022/07/22 04:02:52;;;;;;;12.60;5.10;;;19.00;99.90;;;16.26;100.00;101018.22;4991393;28;20077;-77
2022/07/22 04:05:48;;;;;;;10.55;4.50;;;19.00;99.90;;;16.27;100.00;101019.91;4956154;28;20051;-77
2022/07/22 04:08:24;;;;;;;8.07;4.53;;;19.00;99.90;;;16.28;100.00;101018.00;5053218;22;20068;-82
2022/07/22 04:10:52;;;;;;;11.10;4.28;;;19.00;99.90;;;16.25;100.00;101027.50;5050301;28;20421;-82
2022/07/22 04:13:19;;;;;;;8.60;4.20;;;19.00;99.90;;;16.26;100.00;101029.22;5050407;28;20056;-82
2022/07/22 04:15:54;;;;;;;10.77;4.55;;;19.00;99.90;;;16.27;100.00;101025.41;5050555;28;20894;-81
2022/07/22 04:18:21;;;;;;;9.82;4.30;;;19.00;99.90;;;16.26;100.00;101028.34;5049586;28;20076;-82
2022/07/22 04:20:48;;;;;;;10.02;4.32;;;19.00;99.90;;;16.25;100.00;101021.19;5050164;28;20056;-82
2022/07/22 04:23:35;;;;;;;10.00;4.38;;;19.00;99.90;;;16.29;100.00;101022.44;5050313;28;20131;-82
2022/07/22 04:26:13;;;;;;;16.48;4.65;;;19.00;99.90;;;16.28;100.00;101016.13;5050350;28;20099;-82
2022/07/22 04:28:40;;;;;;;9.40;4.55;;;19.00;99.90;;;16.28;100.00;101013.38;5046223;28;20099;-82
2022/07/22 04:31:07;;;;;;;16.20;5.03;;;19.00;99.90;;;16.32;100.00;101011.06;5050237;28;20049;-82
2022/07/22 04:33:37;;;;;;;9.75;5.32;;;19.00;99.90;;;16.35;100.00;101016.09;5050198;28;20417;-82
2022/07/22 04:36:05;;;;;;;14.60;5.85;;;19.00;99.90;;;16.32;100.00;101011.06;5050099;28;20048;-82
2022/07/22 04:38:34;;;;;;;18.23;6.30;;;19.00;99.90;;;16.30;100.00;101013.16;5049088;28;20130;-82
2022/07/22 04:41:07;;;;;;;12.57;5.38;;;19.00;99.90;;;16.32;100.00;101006.41;5049943;28;20467;-82
2022/07/22 04:43:36;;;;;;;14.90;5.10;;;19.00;99.90;;;16.34;100.00;101009.78;5049849;28;20424;-82
2022/07/22 04:46:03;;;;;;;13.80;6.38;;;19.00;99.90;;;16.36;100.00;100999.41;5049663;28;20037;-82
2022/07/22 04:48:34;;;;;;;11.82;5.65;;;19.00;99.90;;;16.34;100.00;101004.28;5048913;28;20679;-85
2022/07/22 04:51:01;;;;;;;13.25;7.10;;;19.00;99.90;;;16.36;100.00;100990.34;5049542;28;20492;-84
2022/07/22 04:53:30;;;;;;;14.70;5.97;;;19.00;99.90;;;16.33;100.00;101002.56;5049602;28;20122;-84
2022/07/22 04:55:58;;;;;;;12.55;5.30;;;19.00;99.90;;;16.35;100.00;101005.13;5049588;28;20114;-84
2022/07/22 04:58:26;;;;;;;13.48;5.53;;;19.00;99.90;;;16.33;100.00;100993.50;5048573;28;20049;-84
2022/07/22 05:00:53;;;;;;;14.07;5.90;;;19.00;99.90;;;16.36;100.00;100993.94;5049252;28;20091;-84
2022/07/22 05:03:20;;;;;;;16.05;5.95;;;19.00;99.90;;;16.37;100.00;100992.00;5049573;28;20410;-84
2022/07/22 05:05:47;;;;;;;12.30;5.20;;;19.00;99.90;;;16.43;100.00;101002.19;5049522;28;20106;-84
2022/07/22 05:08:21;;;;;;;13.00;4.88;;;19.00;99.90;;;16.44;100.00;100997.53;5048734;28;20040;-84
2022/07/22 05:10:48;;;;;;;10.48;5.25;;;19.00;99.90;;;16.44;100.00;101000.28;5049297;28;20110;-84
2022/07/22 05:13:17;;;;;;;13.18;5.50;;;19.00;99.90;;;16.45;100.00;101005.56;5049217;28;20052;-84
2022/07/22 05:15:44;;;;;;;14.90;5.45;;;19.00;99.90;;;16.46;100.00;101006.41;5049279;28;20068;-84
2022/07/22 05:18:11;;;;;;;18.40;5.53;;;19.00;99.90;;;16.40;100.00;101013.59;5050157;28;20040;-84
2022/07/22 05:20:39;;;;;;;16.75;5.25;;;19.00;99.90;;;16.41;100.00;101020.75;5048449;28;20049;-84
2022/07/22 05:23:07;;;;;;;10.82;4.90;;;19.00;99.90;;;16.45;100.00;101015.69;5048994;28;20055;-84
2022/07/22 05:25:36;;;;;;;13.55;5.18;;;19.00;99.90;;;16.48;100.00;101021.59;5048907;28;20087;-84
2022/07/22 05:28:04;;;;;;;11.57;4.82;;;19.20;99.90;;;16.47;100.00;101021.81;5050302;28;20136;-84
2022/07/22 05:30:35;;;;;;;11.52;4.57;;;19.00;99.90;;;16.47;100.00;101025.44;5048476;28;20041;-84
2022/07/22 05:33:04;;;;;;;12.80;3.97;;;19.10;99.90;;;16.47;100.00;101021.81;5048930;28;20534;-84
2022/07/22 05:35:57;;;;;;;9.32;3.83;;;19.00;99.90;;;16.46;100.00;101033.88;5048126;28;20525;-85
2022/07/22 05:38:32;;;;;;;12.57;3.85;;;19.10;99.90;;;16.46;100.00;101022.88;5048141;28;20053;-84
2022/07/22 05:41:00;;;;;;;11.13;3.88;;;19.00;99.90;;;16.46;100.00;101025.63;5048470;28;20053;-84
2022/07/22 05:43:27;;;;;;;11.15;3.75;;;19.00;99.90;;;16.47;100.00;101021.81;5050234;28;20045;-84
2022/07/22 05:45:56;;;;;;;14.13;3.78;;;19.00;99.90;;;16.45;100.00;101026.69;5048824;28;20053;-84
2022/07/22 05:48:23;;;;;;;15.65;3.95;;;19.10;99.90;;;16.45;100.00;101033.03;5047800;28;20041;-84
2022/07/22 05:50:50;;;;;;;10.55;3.92;;;19.00;99.90;;;16.45;100.00;101032.16;5048506;28;20418;-84
2022/07/22 05:53:18;;;;;;;9.27;3.75;;;19.00;99.90;;;16.45;100.00;101026.69;5048678;28;20102;-84
2022/07/22 05:55:45;;;;;;;8.48;4.00;;;19.00;99.90;;;16.47;100.00;101024.56;5048598;28;20072;-84
2022/07/22 05:58:13;;;;;;;10.05;4.00;;;19.00;99.90;;;16.48;100.00;101013.38;5048111;28;20080;-84
2022/07/22 06:00:41;;;;;;;14.57;4.40;;;19.00;99.90;;;16.55;100.00;101021.63;5047548;28;20047;-85
2022/07/22 06:03:10;;;;;;;9.98;3.92;;;19.00;99.90;;;16.59;100.00;101011.88;5048309;28;20045;-84
2022/07/22 06:05:38;;;;;;;13.95;4.22;;;19.10;99.90;;;16.63;100.00;101015.91;5048525;28;20068;-84
2022/07/22 06:08:08;;;;;;;11.87;4.00;;;19.10;99.90;;;16.68;100.00;101015.25;5062136;28;20071;-84
2022/07/22 06:10:42;;;;;;;11.30;4.00;;;19.10;99.90;;;16.72;100.00;101019.28;5068133;28;20311;-84
2022/07/22 06:13:10;;;;;;;13.10;4.50;;;19.10;99.90;;;16.76;100.00;101023.28;5067893;28;20056;-84
2022/07/22 06:15:38;;;;;;;12.30;3.90;;;19.10;99.90;;;16.80;100.00;101022.66;5069894;28;20098;-84
2022/07/22 06:18:06;;;;;;;18.30;5.20;;;19.20;99.90;;;16.81;100.00;101015.22;5068420;28;20074;-84
2022/07/22 06:20:34;;;;;;;10.15;3.95;;;19.10;99.90;;;16.82;100.00;101014.22;5067554;28;20066;-85
2022/07/22 06:23:02;;;;;;;10.05;4.20;;;19.20;99.90;;;16.81;100.00;101015.22;5058446;28;20092;-84
2022/07/22 06:25:29;;;;;;;9.85;4.50;;;19.20;99.90;;;16.84;100.00;101019.50;5048250;28;20095;-85
2022/07/22 06:27:57;;;;;;;9.68;4.55;;;19.10;99.90;;;16.85;100.00;101021.19;5048211;28;20398;-84
2022/07/22 06:30:26;;;;;;;11.77;4.43;;;19.20;99.90;;;16.90;100.00;101024.16;5047351;28;20481;-84
2022/07/22 06:32:54;;;;;;;10.80;4.05;;;19.20;99.90;;;16.95;100.00;101027.09;5048125;28;20049;-84
2022/07/22 06:35:21;;;;;;;10.48;4.03;;;19.20;99.90;;;16.93;100.00;101029.22;5048174;28;20416;-84
2022/07/22 06:37:50;;;;;;;8.80;3.70;;;19.20;99.90;;;16.93;100.00;101027.31;5048061;28;20056;-84
2022/07/22 06:40:17;;;;;;;12.50;3.55;;;19.30;99.90;;;16.99;100.00;101026.44;5047361;28;20128;-85
2022/07/22 06:42:54;;;;;;;11.55;3.65;;;19.20;99.90;;;17.01;100.00;101031.75;5048438;28;20058;-85
2022/07/22 06:45:21;;;;;;;10.82;3.63;;;19.20;99.90;;;17.07;100.00;101030.03;5049820;28;20045;-84
2022/07/22 06:47:55;;;;;;;8.25;2.95;;;19.20;99.90;;;17.08;100.00;101032.59;5049523;28;20041;-84
2022/07/22 06:50:22;;;;;;;9.00;3.47;;;19.30;99.90;;;17.06;100.00;101033.84;5047379;28;20124;-85
2022/07/22 06:52:50;;;;;;;10.85;3.53;;;19.30;99.90;;;17.09;100.00;101026.00;5048095;28;20063;-85
2022/07/22 06:55:18;;;;;;;9.85;3.53;;;19.30;99.90;;;17.10;100.00;101030.47;5047968;28;20095;-84
2022/07/22 06:57:55;;;;;;;9.60;3.22;;;19.20;99.90;;;17.10;100.00;101030.47;5047931;28;20041;-84
2022/07/22 07:00:22;;;;;;;12.43;3.95;;;19.30;99.90;;;17.17;100.00;101033.19;5047019;28;20041;-85
2022/07/22 07:03:25;;;;;;;8.82;3.83;;;19.30;99.90;;;17.16;100.00;101026.84;5043440;28;20052;-84
2022/07/22 07:05:53;;;;;;;8.80;3.90;;;19.30;99.90;;;17.16;100.00;101024.09;5047894;28;20059;-84
2022/07/22 07:08:22;;;;;;;17.05;4.00;;;19.30;99.90;;;17.16;100.00;101026.84;5047125;28;20057;-84
2022/07/22 07:10:50;;;;;;;8.43;3.78;;;19.30;99.90;;;17.23;100.00;101014.97;5049078;28;20378;-85
2022/07/22 07:13:18;;;;;;;7.93;3.42;;;19.30;99.90;;;17.26;100.00;101012.63;5047884;28;20041;-84
2022/07/22 07:15:48;;;;;;;13.75;3.38;;;19.40;99.90;;;17.30;100.00;101013.03;5047879;28;20037;-85
2022/07/22 07:18:15;;;;;;;10.27;4.18;;;19.40;99.90;;;17.34;100.00;101011.53;5047636;28;20065;-85
2022/07/22 07:20:43;;;;;;;12.85;4.38;;;19.40;99.90;;;17.37;100.00;101008.38;5047363;28;20033;-84
2022/07/22 07:23:11;;;;;;;6.28;3.40;;;19.40;99.90;;;17.40;100.00;101013.41;5047851;28;20468;-84
2022/07/22 07:25:46;;;;;;;11.80;4.05;;;19.40;99.90;;;17.43;100.00;101010.25;5050586;28;20095;-84
2022/07/22 07:28:13;;;;;;;10.38;3.85;;;19.50;99.90;;;17.47;100.00;101007.91;5050945;28;20072;-85
2022/07/22 07:30:49;;;;;;;8.20;2.80;;;19.50;99.90;;;17.47;100.00;101010.66;5051124;28;20636;-85
2022/07/22 07:33:17;;;;;;;8.70;3.00;;;19.50;99.90;;;17.46;100.00;101012.56;5051175;28;20056;-84
2022/07/22 07:35:44;;;;;;;8.93;2.92;;;19.50;99.90;;;17.48;100.00;101010.44;5051136;28;20045;-84
2022/07/22 07:38:12;;;;;;;8.48;3.05;;;19.50;99.90;;;17.55;100.00;101002.16;5050628;28;20068;-84
2022/07/22 07:40:42;;;;;;;8.90;3.53;;;19.50;99.90;;;17.62;100.00;100999.38;5050422;28;20049;-84
2022/07/22 07:43:11;;;;;;;5.72;2.80;;;19.50;99.90;;;17.65;100.00;101004.41;5050833;28;20093;-84
2022/07/22 07:45:38;;;;;;;14.07;3.13;;;19.60;99.90;;;17.68;100.00;101002.06;5050891;28;20048;-84
2022/07/22 07:48:06;;;;;;;7.70;2.72;;;19.60;99.90;;;17.71;100.00;101009.06;5050875;28;20073;-84
2022/07/22 07:50:36;;;;;;;8.40;3.97;;;19.60;99.90;;;17.66;100.00;101008.88;5051804;28;20037;-84
2022/07/22 07:53:03;;;;;;;8.23;4.18;;;19.60;99.90;;;17.71;100.00;101009.91;5050938;28;20045;-84
2022/07/22 07:55:30;;;;;;;12.07;5.72;;;19.60;99.90;;;17.70;100.00;101005.44;5050834;28;20472;-84
2022/07/22 07:57:58;;;;;;;18.27;10.80;;;19.60;99.90;;;17.71;100.00;101015.41;5050616;28;20045;-84
2022/07/22 08:00:28;;;;;;;21.45;13.45;;;19.60;99.90;;;17.68;100.00;101007.59;5049474;28;20094;-84
2022/07/22 08:02:56;;;;;;;18.63;13.63;;;19.60;99.90;;;17.69;100.00;101002.94;5050752;28;20139;-84
2022/07/22 08:05:24;;;;;;;19.05;12.32;;;19.70;99.90;;;17.73;100.00;101002.28;5050641;28;20051;-84
2022/07/22 08:07:52;;;;;;;19.88;13.13;;;19.70;99.90;;;17.83;100.00;101001.78;5061977;28;20125;-84
2022/07/22 08:10:20;;;;;;;18.02;11.90;;;19.70;99.90;;;17.83;100.00;100990.78;5069545;28;20053;-84
2022/07/22 08:13:07;;;;;;;17.48;10.25;;;19.70;99.90;;;17.82;100.00;100999.25;5072049;28;20536;-84
2022/07/22 08:15:51;;;;;;;12.63;8.27;;;19.70;99.90;;;17.82;100.00;101000.13;5070345;28;20048;-84
2022/07/22 08:18:22;;;;;;;14.05;8.20;;;19.70;99.90;;;17.84;100.00;100992.50;5069525;28;20048;-84
2022/07/22 08:20:49;;;;;;;14.27;7.10;;;19.70;99.90;;;17.84;100.00;100998.00;5070178;28;20121;-84
2022/07/22 08:23:18;;;;;;;12.18;7.15;;;19.70;99.90;;;17.89;100.00;101000.09;5070362;28;20094;-84
2022/07/22 08:25:47;;;;;;;13.23;7.47;;;19.70;99.90;;;17.86;100.00;101000.53;5060362;28;20050;-84
2022/07/22 08:28:14;;;;;;;17.35;9.15;;;19.70;99.90;;;17.90;100.00;100999.88;5051381;28;20516;-84
2022/07/22 08:30:42;;;;;;;22.23;11.55;;;19.80;99.90;;;17.91;100.00;101000.72;5049737;28;20040;-84
2022/07/22 08:33:10;;;;;;;19.75;9.57;;;19.80;99.90;;;17.90;100.00;100999.03;5050074;28;20049;-84
2022/07/22 08:35:39;;;;;;;12.32;7.40;;;19.80;99.90;;;17.94;100.00;100995.63;5049798;28;20424;-84
2022/07/22 08:38:06;;;;;;;10.45;6.32;;;19.80;99.90;;;17.88;100.00;100999.25;5051043;28;20120;-84
2022/07/22 08:40:36;;;;;;;14.38;6.80;;;19.80;99.90;;;17.91;100.00;100998.78;5049239;28;20052;-84
2022/07/22 08:43:06;;;;;;;14.23;7.60;;;19.80;99.90;;;17.89;100.00;101000.94;5049880;28;20103;-84
2022/07/22 08:45:34;;;;;;;15.32;7.72;;;19.80;99.90;;;17.92;100.00;100994.16;5049691;28;20044;-84
2022/07/22 08:48:03;;;;;;;14.18;8.40;;;19.80;99.90;;;17.88;100.00;100996.50;5049650;28;20049;-84
2022/07/22 08:50:46;;;;;;;11.93;7.47;;;19.80;99.90;;;17.89;100.00;101000.09;5049293;28;20441;-85
2022/07/22 08:53:22;;;;;;;14.70;9.77;;;19.80;99.90;;;17.92;100.00;101006.00;5049803;28;20068;-84
2022/07/22 08:55:51;;;;;;;16.45;10.43;;;19.80;99.90;;;17.94;100.00;101003.88;5049593;28;20143;-84
2022/07/22 08:58:18;;;;;;;20.25;11.15;;;19.80;99.90;;;17.93;100.00;101009.59;5049194;28;20064;-84
2022/07/22 09:00:46;;;;;;;16.50;10.20;;;19.90;99.90;;;17.93;100.00;101018.72;5050701;28;20047;-84
2022/07/22 09:03:22;;;;;;;17.13;10.18;;;19.90;99.90;;;17.93;100.00;101013.22;5050970;28;20095;-84
2022/07/22 09:05:52;;;;;;;17.00;10.68;;;19.90;99.90;;;17.96;100.00;101017.44;5049662;28;20096;-84
2022/07/22 09:08:20;;;;;;;18.92;10.82;;;19.90;99.90;;;17.94;100.00;101020.41;5065672;28;20058;-84
2022/07/22 09:11:17;;;;;;;19.35;12.82;;;19.90;99.90;;;17.94;100.00;101014.88;5062242;28;20124;-84
2022/07/22 09:14:10;;;;;;;21.20;13.15;;;19.90;99.90;;;17.90;100.00;101013.66;5046875;28;20083;-84
2022/07/22 09:17:01;;;;;;;;;;;19.90;99.90;;;17.89;100.00;101011.94;5070873;28;20040;-85
2022/07/22 09:19:35;;;;;;;22.25;14.77;;;19.90;99.90;;;17.84;100.00;101014.53;5051729;28;20681;-84
2022/07/22 09:22:43;;;;;;;23.45;15.27;;;19.90;99.90;;;17.83;100.00;101012.81;5070750;28;20078;-84
2022/07/22 09:25:27;;;;;;;32.53;15.95;;;19.90;99.90;;;17.91;100.00;101014.47;5052322;28;20057;-84
2022/07/22 09:28:17;;;;;;;30.80;17.65;;;19.90;99.90;;;18.01;100.00;101014.00;5069914;28;20542;-84
2022/07/22 09:31:03;;;;;;;25.23;15.05;;;19.90;99.90;;;18.01;100.00;101014.00;5070575;28;20051;-85
2022/07/22 09:33:35;;;;;;;22.05;14.75;;;19.90;99.90;;;17.98;100.00;101013.38;5052277;28;20048;-84
2022/07/22 09:36:19;;;;;;;23.25;14.05;;;19.90;99.90;;;18.01;100.00;101009.34;5070292;28;20127;-85
2022/07/22 09:38:47;;;;;;;16.50;10.68;;;19.90;99.90;;;18.09;100.00;101011.84;5051523;28;20045;-84
2022/07/22 09:41:15;;;;;;;18.40;10.63;;;19.90;99.90;;;18.14;100.00;101009.25;5052123;28;20040;-84
2022/07/22 09:43:42;;;;;;;17.80;11.00;;;19.90;99.90;;;18.20;100.00;101013.03;5070165;28;20048;-84
2022/07/22 09:46:11;;;;;;;21.00;12.00;;;19.90;99.90;;;18.23;99.59;101020.84;5052066;28;20040;-84
2022/07/22 09:48:58;;;;;;;22.40;12.88;;;20.00;99.90;;;18.26;100.00;101017.66;5036922;28;20224;-85
2022/07/22 09:51:47;;;;;;;25.70;13.63;;;20.00;99.90;;;18.22;100.00;101024.69;5052249;28;20509;-84
2022/07/22 09:54:27;;;;;;;29.65;17.20;;;20.00;99.90;;;18.17;100.00;101028.09;5069967;28;20064;-84
2022/07/22 09:56:55;;;;;;;30.60;17.65;;;20.00;99.90;;;18.13;100.00;101021.34;5068448;28;20041;-86
2022/07/22 09:59:23;;;;;;;29.02;16.33;;;20.00;99.90;;;18.13;100.00;101024.09;5067751;28;20048;-87
2022/07/22 10:02:03;;;;;;;27.67;15.85;;;20.00;99.90;;;18.17;100.00;101016.22;5068505;28;20040;-84
2022/07/22 10:04:34;;;;;;;27.98;15.75;;;20.00;99.90;;;18.28;100.00;101021.03;5068622;28;20122;-84
2022/07/22 10:07:03;;;;;;;25.35;16.00;;;20.00;99.90;;;18.32;100.00;101016.75;5084612;22;20048;-82
2022/07/22 10:09:38;;;;;;;32.30;18.45;;;20.10;99.90;;;18.34;100.00;101011.84;5029981;28;20041;-81
2022/07/22 10:12:07;;;;;;;28.52;16.15;;;20.10;99.90;;;18.36;100.00;101006.97;5031946;28;20045;-82
2022/07/22 10:14:39;;;;;;;28.05;17.48;;;20.10;99.90;;;18.37;100.00;101007.78;5032057;28;20053;-82